RV Helmer Hanssen — LAHV — position and weather

sailwx.info

Track history (hours):
 
Tides and Currents Weather Stations Pressure Air Temp Water Temp Dewpoint Dewpoint Depression Visibility Wind Speed Wind Dir Waves Ship Positions

Oceanographic research ship RV Helmer Hanssen (Norway)

ex Jan Mayen.

Ship's website: http://uit.no/bfe

Detailed information on ship capabilities available from University of Delaware's Ocean Information Center and ARCUS's ALIAS (Arctic Logistics Information and Support) project.

Last reported at 2018-Feb-13 20:58 UTC. Time now 2018-Feb-23 14:15 UTC.
Position N 70°49' E 031°10'.
Warning: this ship's position is 9 days out of date.

Length 64 m; beam 13 m.

Type: Other ship. MMSI: 257471500.

Date/timePositionNaut miles runAvg speedWind from/ knotsBaromVisibWave heightAir tempDewpointWater temp
2018-Feb-13 20:58N 70°49' E 031°10'510.5
2018-Feb-13 20:30N 70°44' E 031°10'510.5
2018-Feb-13 20:00N 70°39' E 031°11'610.9
2018-Feb-13 19:29N 70°33' E 031°12'511.1
2018-Feb-13 19:00N 70°28' E 031°13'510.6
2018-Feb-13 18:30N 70°23' E 031°14'610.8
2018-Feb-13 18:00N 70°17' E 031°09'510.7
2018-Feb-13 17:29N 70°13' E 030°60'4 8.6
2018-Feb-13 17:00N 70°09' E 030°52'510.6
2018-Feb-13 16:29N 70°05' E 030°41'611.3
2018-Feb-13 15:58N 70°01' E 030°30'511.2
2018-Feb-13 15:29N 69°57' E 030°20'511.1
2018-Feb-13 15:00N 69°53' E 030°09'611.0
2018-Feb-13 14:30N 69°48' E 030°06'4 8.0
2018-Feb-13 14:00N 69°44' E 030°04'0 0.0
2018-Feb-13 13:30N 69°44' E 030°04'0 0.0
2018-Feb-13 12:59N 69°44' E 030°04'0 0.0
2018-Feb-13 12:30N 69°44' E 030°04'0 0.0
2018-Feb-13 12:00N 69°44' E 030°04'0 0.0
2018-Feb-13 11:30N 69°44' E 030°04'0 0.0
2018-Feb-13 10:58N 69°44' E 030°04'0 0.0
2018-Feb-13 10:29N 69°44' E 030°04'0 0.0
2018-Feb-13 10:00N 69°44' E 030°04'0 0.0
2018-Feb-13 09:30N 69°44' E 030°04'0 0.0
2018-Feb-13 08:59N 69°44' E 030°04'0 0.0
2018-Feb-13 08:29N 69°44' E 030°04'0 0.0
2018-Feb-13 08:00N 69°44' E 030°04'0 0.0
2018-Feb-13 07:30N 69°44' E 030°04'0 0.0
2018-Feb-13 07:00N 69°44' E 030°04'0 0.0
2018-Feb-13 06:29N 69°44' E 030°04'0 0.0
2018-Feb-13 05:59N 69°44' E 030°04'0 0.0
2018-Feb-13 05:29N 69°44' E 030°04'0 0.0
2018-Feb-13 05:00N 69°44' E 030°04'0 0.0
2018-Feb-13 04:29N 69°44' E 030°04'0 0.0
2018-Feb-13 03:59N 69°44' E 030°04'0 0.0
2018-Feb-13 03:30N 69°44' E 030°04'0 0.0
2018-Feb-13 03:00N 69°44' E 030°04'0 0.0
2018-Feb-13 02:28N 69°44' E 030°04'0 0.0
2018-Feb-13 02:00N 69°44' E 030°04'0 0.0
2018-Feb-13 01:30N 69°44' E 030°04'0 0.0
2018-Feb-13 01:00N 69°44' E 030°04'0 0.0
2018-Feb-13 00:29N 69°44' E 030°04'0 0.0
2018-Feb-13 00:00N 69°44' E 030°04'0 0.0
2018-Feb-12 23:30N 69°44' E 030°04'0 0.0
2018-Feb-12 23:00N 69°44' E 030°04'0 0.0
2018-Feb-12 22:29N 69°44' E 030°04'0 0.0
2018-Feb-12 22:00N 69°44' E 030°04'0 0.0
2018-Feb-12 21:29N 69°44' E 030°04'0 0.0
2018-Feb-12 20:59N 69°44' E 030°04'0 0.0
2018-Feb-12 20:29N 69°44' E 030°04'0 0.0
2018-Feb-12 20:00N 69°44' E 030°04'0 0.0
2018-Feb-12 19:30N 69°44' E 030°04'0 0.0
2018-Feb-12 18:59N 69°44' E 030°04'0 0.0
2018-Feb-12 18:30N 69°44' E 030°04'0 0.0
2018-Feb-12 18:00N 69°44' E 030°04'0 0.0
2018-Feb-12 17:30N 69°44' E 030°04'0 0.0
2018-Feb-12 17:00N 69°44' E 030°04'0 0.0
2018-Feb-12 16:30N 69°44' E 030°04'0 0.0
2018-Feb-12 15:58N 69°44' E 030°04'0 0.0
2018-Feb-12 15:30N 69°44' E 030°04'0 0.0
2018-Feb-12 15:00N 69°44' E 030°04'0 0.0
2018-Feb-12 14:30N 69°44' E 030°04'0 0.0
2018-Feb-12 14:00N 69°44' E 030°04'0 0.0
2018-Feb-12 13:30N 69°44' E 030°04'0 0.0
2018-Feb-12 13:00N 69°44' E 030°04'0 0.0
2018-Feb-12 12:29N 69°44' E 030°04'0 0.0
2018-Feb-12 12:00N 69°44' E 030°04'0 0.0
2018-Feb-12 11:30N 69°44' E 030°04'0 0.0
2018-Feb-12 10:59N 69°44' E 030°04'0 0.0
2018-Feb-12 10:30N 69°44' E 030°04'0 0.0
2018-Feb-12 10:00N 69°44' E 030°04'0 0.0
2018-Feb-12 09:30N 69°44' E 030°04'4 8.4
2018-Feb-12 09:00N 69°48' E 030°06'510.5
2018-Feb-12 08:29N 69°53' E 030°08'510.6
2018-Feb-12 08:00N 69°56' E 030°20'611.2
2018-Feb-12 07:29N 69°60' E 030°34'510.8
2018-Feb-12 07:00N 70°03' E 030°46'4 7.1
2018-Feb-12 06:30N 70°05' E 030°54'3 5.8
2018-Feb-12 06:00N 70°07' E 031°01'2 3.7
2018-Feb-12 05:29N 70°08' E 031°05'4 8.7
2018-Feb-12 05:00N 70°11' E 031°14'5 9.8
2018-Feb-12 04:29N 70°15' E 031°25'5 9.9
2018-Feb-12 04:00N 70°18' E 031°35'510.1
2018-Feb-12 03:30N 70°22' E 031°45'1 1.9
2018-Feb-12 02:59N 70°22' E 031°48'2 3.7
2018-Feb-12 02:30N 70°21' E 031°44'0 0.2
2018-Feb-12 02:00N 70°21' E 031°45'1 2.1
2018-Feb-12 01:30N 70°22' E 031°47'1 1.1
2018-Feb-12 00:59N 70°22' E 031°46'36 5.4
2018-Feb-11 18:15N 70°54' E 030°53'310.6
2018-Feb-11 18:00N 70°54' E 030°44'510.5
2018-Feb-11 17:30N 70°54' E 030°29'4 7.0
2018-Feb-11 17:00N 70°54' E 030°18'2 3.0
2018-Feb-11 16:29N 70°54' E 030°13'4 8.1
2018-Feb-11 16:00N 70°55' E 030°02'5 9.9
2018-Feb-11 15:30N 70°57' E 029°47'510.2
2018-Feb-11 15:00N 70°58' E 029°32'2 3.5
2018-Feb-11 14:30N 70°59' E 029°27'2 4.0
2018-Feb-11 14:00N 70°60' E 029°22'510.0
2018-Feb-11 13:30N 71°05' E 029°24'5 9.5
2018-Feb-11 13:00N 71°10' E 029°23'1 1.5
2018-Feb-11 12:30N 71°10' E 029°25'3 5.6
2018-Feb-11 12:00N 71°10' E 029°34'5 9.0
2018-Feb-11 11:29N 71°10' E 029°48'4 8.7
2018-Feb-11 10:58N 71°10' E 030°02'26 2.6
2018-Feb-11 00:49N 70°52' E 031°00'3 9.5
2018-Feb-11 00:29N 70°49' E 031°00'4 9.3
2018-Feb-11 00:00N 70°44' E 030°59'5 9.6
2018-Feb-10 23:29N 70°39' E 030°56'2 4.6
2018-Feb-10 23:00N 70°37' E 030°56'2 3.5
2018-Feb-10 22:30N 70°37' E 031°01'4 7.5
2018-Feb-10 22:00N 70°34' E 031°05'510.1
2018-Feb-10 21:30N 70°29' E 031°09'510.3
2018-Feb-10 21:00N 70°24' E 031°13'510.3
2018-Feb-10 20:30N 70°19' E 031°11'510.8
2018-Feb-10 20:00N 70°14' E 031°07'510.7
2018-Feb-10 19:30N 70°09' E 031°03'1 2.2
2018-Feb-10 19:00N 70°07' E 031°02'2 3.4
2018-Feb-10 18:30N 70°07' E 030°58'3 5.1
2018-Feb-10 18:00N 70°08' E 031°04'1 2.6
2018-Feb-10 17:30N 70°07' E 031°01'3 5.4
2018-Feb-10 17:00N 70°06' E 030°54'510.8
2018-Feb-10 16:30N 70°02' E 030°42'510.6
2018-Feb-10 16:00N 69°59' E 030°30'510.5
2018-Feb-10 15:29N 69°56' E 030°17'510.8
2018-Feb-10 15:00N 69°52' E 030°07'611.3
2018-Feb-10 14:30N 69°46' E 030°05'3 5.0
2018-Feb-10 14:00N 69°44' E 030°04'0 0.0
2018-Feb-10 13:30N 69°44' E 030°04'0 0.0
2018-Feb-10 13:00N 69°44' E 030°04'0 0.0
2018-Feb-10 12:30N 69°44' E 030°04'0 0.0
2018-Feb-10 12:00N 69°44' E 030°04'0 0.0
2018-Feb-10 11:30N 69°44' E 030°04'0 0.0
2018-Feb-10 11:00N 69°44' E 030°04'0 0.0
2018-Feb-10 10:30N 69°44' E 030°04'0 0.0
2018-Feb-10 10:00N 69°44' E 030°04'0 0.0
2018-Feb-10 09:29N 69°44' E 030°04'0 0.0
2018-Feb-10 09:00N 69°44' E 030°04'0 0.0
2018-Feb-10 08:30N 69°44' E 030°04'0 0.0
2018-Feb-10 08:00N 69°44' E 030°04'0 0.0
2018-Feb-10 07:30N 69°44' E 030°04'0 0.0
2018-Feb-10 07:00N 69°44' E 030°04'0 0.0
2018-Feb-10 06:29N 69°44' E 030°04'0 0.0
2018-Feb-10 06:00N 69°44' E 030°04'0 0.0
2018-Feb-10 05:30N 69°44' E 030°04'0 0.0
2018-Feb-10 05:00N 69°44' E 030°04'0 0.0
2018-Feb-10 04:30N 69°44' E 030°04'0 0.0
2018-Feb-10 04:00N 69°44' E 030°04'0 0.0
2018-Feb-10 03:30N 69°44' E 030°04'0 0.0
2018-Feb-10 03:00N 69°44' E 030°04'0 0.0
2018-Feb-10 02:30N 69°44' E 030°04'0 0.0
2018-Feb-10 01:59N 69°44' E 030°04'0 0.0
2018-Feb-10 01:30N 69°44' E 030°04'0 0.0
2018-Feb-10 01:00N 69°44' E 030°04'0 0.0
2018-Feb-10 00:30N 69°44' E 030°04'0 0.0
2018-Feb-10 00:00N 69°44' E 030°04'0 0.0
2018-Feb-09 23:30N 69°44' E 030°04'0 0.0
2018-Feb-09 23:00N 69°44' E 030°04'0 0.0
2018-Feb-09 22:45N 69°44' E 030°04'0 0.0
2018-Feb-09 13:30N 69°44' E 030°04'  
Track history (hours):
 
Tides and Currents Weather Stations Pressure Air Temp Water Temp Dewpoint Dewpoint Depression Visibility Wind Speed Wind Dir Waves Ship Positions

Oceanographic research ship RV Helmer Hanssen (Norway)

ex Jan Mayen.

Ship's website: http://uit.no/bfe

Detailed information on ship capabilities available from University of Delaware's Ocean Information Center and ARCUS's ALIAS (Arctic Logistics Information and Support) project.

Last reported at 2018-Feb-13 20:58 UTC. Time now 2018-Feb-23 14:15 UTC.
Position N 70°49' E 031°10'.
Warning: this ship's position is 9 days out of date.

Length 64 m; beam 13 m.

Type: Other ship. MMSI: 257471500.

Date/timePositionNaut miles runAvg speedWind from/ knotsBaromVisibWave heightAir tempDewpointWater temp
2018-Feb-13 20:58N 70°49' E 031°10'510.5
2018-Feb-13 20:30N 70°44' E 031°10'510.5
2018-Feb-13 20:00N 70°39' E 031°11'610.9
2018-Feb-13 19:29N 70°33' E 031°12'511.1
2018-Feb-13 19:00N 70°28' E 031°13'510.6
2018-Feb-13 18:30N 70°23' E 031°14'610.8
2018-Feb-13 18:00N 70°17' E 031°09'510.7
2018-Feb-13 17:29N 70°13' E 030°60'4 8.6
2018-Feb-13 17:00N 70°09' E 030°52'510.6
2018-Feb-13 16:29N 70°05' E 030°41'611.3
2018-Feb-13 15:58N 70°01' E 030°30'511.2
2018-Feb-13 15:29N 69°57' E 030°20'511.1
2018-Feb-13 15:00N 69°53' E 030°09'611.0
2018-Feb-13 14:30N 69°48' E 030°06'4 8.0
2018-Feb-13 14:00N 69°44' E 030°04'0 0.0
2018-Feb-13 13:30N 69°44' E 030°04'0 0.0
2018-Feb-13 12:59N 69°44' E 030°04'0 0.0
2018-Feb-13 12:30N 69°44' E 030°04'0 0.0
2018-Feb-13 12:00N 69°44' E 030°04'0 0.0
2018-Feb-13 11:30N 69°44' E 030°04'0 0.0
2018-Feb-13 10:58N 69°44' E 030°04'0 0.0
2018-Feb-13 10:29N 69°44' E 030°04'0 0.0
2018-Feb-13 10:00N 69°44' E 030°04'0 0.0
2018-Feb-13 09:30N 69°44' E 030°04'0 0.0
2018-Feb-13 08:59N 69°44' E 030°04'0 0.0
2018-Feb-13 08:29N 69°44' E 030°04'0 0.0
2018-Feb-13 08:00N 69°44' E 030°04'0 0.0
2018-Feb-13 07:30N 69°44' E 030°04'0 0.0
2018-Feb-13 07:00N 69°44' E 030°04'0 0.0
2018-Feb-13 06:29N 69°44' E 030°04'0 0.0
2018-Feb-13 05:59N 69°44' E 030°04'0 0.0
2018-Feb-13 05:29N 69°44' E 030°04'0 0.0
2018-Feb-13 05:00N 69°44' E 030°04'0 0.0
2018-Feb-13 04:29N 69°44' E 030°04'0 0.0
2018-Feb-13 03:59N 69°44' E 030°04'0 0.0
2018-Feb-13 03:30N 69°44' E 030°04'0 0.0
2018-Feb-13 03:00N 69°44' E 030°04'0 0.0
2018-Feb-13 02:28N 69°44' E 030°04'0 0.0
2018-Feb-13 02:00N 69°44' E 030°04'0 0.0
2018-Feb-13 01:30N 69°44' E 030°04'0 0.0
2018-Feb-13 01:00N 69°44' E 030°04'0 0.0
2018-Feb-13 00:29N 69°44' E 030°04'0 0.0
2018-Feb-13 00:00N 69°44' E 030°04'0 0.0
2018-Feb-12 23:30N 69°44' E 030°04'0 0.0
2018-Feb-12 23:00N 69°44' E 030°04'0 0.0
2018-Feb-12 22:29N 69°44' E 030°04'0 0.0
2018-Feb-12 22:00N 69°44' E 030°04'0 0.0
2018-Feb-12 21:29N 69°44' E 030°04'0 0.0
2018-Feb-12 20:59N 69°44' E 030°04'0 0.0
2018-Feb-12 20:29N 69°44' E 030°04'0 0.0
2018-Feb-12 20:00N 69°44' E 030°04'0 0.0
2018-Feb-12 19:30N 69°44' E 030°04'0 0.0
2018-Feb-12 18:59N 69°44' E 030°04'0 0.0
2018-Feb-12 18:30N 69°44' E 030°04'0 0.0
2018-Feb-12 18:00N 69°44' E 030°04'0 0.0
2018-Feb-12 17:30N 69°44' E 030°04'0 0.0
2018-Feb-12 17:00N 69°44' E 030°04'0 0.0
2018-Feb-12 16:30N 69°44' E 030°04'0 0.0
2018-Feb-12 15:58N 69°44' E 030°04'0 0.0
2018-Feb-12 15:30N 69°44' E 030°04'0 0.0
2018-Feb-12 15:00N 69°44' E 030°04'0 0.0
2018-Feb-12 14:30N 69°44' E 030°04'0 0.0
2018-Feb-12 14:00N 69°44' E 030°04'0 0.0
2018-Feb-12 13:30N 69°44' E 030°04'0 0.0
2018-Feb-12 13:00N 69°44' E 030°04'0 0.0
2018-Feb-12 12:29N 69°44' E 030°04'0 0.0
2018-Feb-12 12:00N 69°44' E 030°04'0 0.0
2018-Feb-12 11:30N 69°44' E 030°04'0 0.0
2018-Feb-12 10:59N 69°44' E 030°04'0 0.0
2018-Feb-12 10:30N 69°44' E 030°04'0 0.0
2018-Feb-12 10:00N 69°44' E 030°04'0 0.0
2018-Feb-12 09:30N 69°44' E 030°04'4 8.4
2018-Feb-12 09:00N 69°48' E 030°06'510.5
2018-Feb-12 08:29N 69°53' E 030°08'510.6
2018-Feb-12 08:00N 69°56' E 030°20'611.2
2018-Feb-12 07:29N 69°60' E 030°34'510.8
2018-Feb-12 07:00N 70°03' E 030°46'4 7.1
2018-Feb-12 06:30N 70°05' E 030°54'3 5.8
2018-Feb-12 06:00N 70°07' E 031°01'2 3.7
2018-Feb-12 05:29N 70°08' E 031°05'4 8.7
2018-Feb-12 05:00N 70°11' E 031°14'5 9.8
2018-Feb-12 04:29N 70°15' E 031°25'5 9.9
2018-Feb-12 04:00N 70°18' E 031°35'510.1
2018-Feb-12 03:30N 70°22' E 031°45'1 1.9
2018-Feb-12 02:59N 70°22' E 031°48'2 3.7
2018-Feb-12 02:30N 70°21' E 031°44'0 0.2
2018-Feb-12 02:00N 70°21' E 031°45'1 2.1
2018-Feb-12 01:30N 70°22' E 031°47'1 1.1
2018-Feb-12 00:59N 70°22' E 031°46'36 5.4
2018-Feb-11 18:15N 70°54' E 030°53'310.6
2018-Feb-11 18:00N 70°54' E 030°44'510.5
2018-Feb-11 17:30N 70°54' E 030°29'4 7.0
2018-Feb-11 17:00N 70°54' E 030°18'2 3.0
2018-Feb-11 16:29N 70°54' E 030°13'4 8.1
2018-Feb-11 16:00N 70°55' E 030°02'5 9.9
2018-Feb-11 15:30N 70°57' E 029°47'510.2
2018-Feb-11 15:00N 70°58' E 029°32'2 3.5
2018-Feb-11 14:30N 70°59' E 029°27'2 4.0
2018-Feb-11 14:00N 70°60' E 029°22'510.0
2018-Feb-11 13:30N 71°05' E 029°24'5 9.5
2018-Feb-11 13:00N 71°10' E 029°23'1 1.5
2018-Feb-11 12:30N 71°10' E 029°25'3 5.6
2018-Feb-11 12:00N 71°10' E 029°34'5 9.0
2018-Feb-11 11:29N 71°10' E 029°48'4 8.7
2018-Feb-11 10:58N 71°10' E 030°02'26 2.6
2018-Feb-11 00:49N 70°52' E 031°00'3 9.5
2018-Feb-11 00:29N 70°49' E 031°00'4 9.3
2018-Feb-11 00:00N 70°44' E 030°59'5 9.6
2018-Feb-10 23:29N 70°39' E 030°56'2 4.6
2018-Feb-10 23:00N 70°37' E 030°56'2 3.5
2018-Feb-10 22:30N 70°37' E 031°01'4 7.5
2018-Feb-10 22:00N 70°34' E 031°05'510.1
2018-Feb-10 21:30N 70°29' E 031°09'510.3
2018-Feb-10 21:00N 70°24' E 031°13'510.3
2018-Feb-10 20:30N 70°19' E 031°11'510.8
2018-Feb-10 20:00N 70°14' E 031°07'510.7
2018-Feb-10 19:30N 70°09' E 031°03'1 2.2
2018-Feb-10 19:00N 70°07' E 031°02'2 3.4
2018-Feb-10 18:30N 70°07' E 030°58'3 5.1
2018-Feb-10 18:00N 70°08' E 031°04'1 2.6
2018-Feb-10 17:30N 70°07' E 031°01'3 5.4
2018-Feb-10 17:00N 70°06' E 030°54'510.8
2018-Feb-10 16:30N 70°02' E 030°42'510.6
2018-Feb-10 16:00N 69°59' E 030°30'510.5
2018-Feb-10 15:29N 69°56' E 030°17'510.8
2018-Feb-10 15:00N 69°52' E 030°07'611.3
2018-Feb-10 14:30N 69°46' E 030°05'3 5.0
2018-Feb-10 14:00N 69°44' E 030°04'0 0.0
2018-Feb-10 13:30N 69°44' E 030°04'0 0.0
2018-Feb-10 13:00N 69°44' E 030°04'0 0.0
2018-Feb-10 12:30N 69°44' E 030°04'0 0.0
2018-Feb-10 12:00N 69°44' E 030°04'0 0.0
2018-Feb-10 11:30N 69°44' E 030°04'0 0.0
2018-Feb-10 11:00N 69°44' E 030°04'0 0.0
2018-Feb-10 10:30N 69°44' E 030°04'0 0.0
2018-Feb-10 10:00N 69°44' E 030°04'0 0.0
2018-Feb-10 09:29N 69°44' E 030°04'0 0.0
2018-Feb-10 09:00N 69°44' E 030°04'0 0.0
2018-Feb-10 08:30N 69°44' E 030°04'0 0.0
2018-Feb-10 08:00N 69°44' E 030°04'0 0.0
2018-Feb-10 07:30N 69°44' E 030°04'0 0.0
2018-Feb-10 07:00N 69°44' E 030°04'0 0.0
2018-Feb-10 06:29N 69°44' E 030°04'0 0.0
2018-Feb-10 06:00N 69°44' E 030°04'0 0.0
2018-Feb-10 05:30N 69°44' E 030°04'0 0.0
2018-Feb-10 05:00N 69°44' E 030°04'0 0.0
2018-Feb-10 04:30N 69°44' E 030°04'0 0.0
2018-Feb-10 04:00N 69°44' E 030°04'0 0.0
2018-Feb-10 03:30N 69°44' E 030°04'0 0.0
2018-Feb-10 03:00N 69°44' E 030°04'0 0.0
2018-Feb-10 02:30N 69°44' E 030°04'0 0.0
2018-Feb-10 01:59N 69°44' E 030°04'0 0.0
2018-Feb-10 01:30N 69°44' E 030°04'0 0.0
2018-Feb-10 01:00N 69°44' E 030°04'0 0.0
2018-Feb-10 00:30N 69°44' E 030°04'0 0.0
2018-Feb-10 00:00N 69°44' E 030°04'0 0.0
2018-Feb-09 23:30N 69°44' E 030°04'0 0.0
2018-Feb-09 23:00N 69°44' E 030°04'0 0.0
2018-Feb-09 22:45N 69°44' E 030°04'0 0.0
2018-Feb-09 13:30N 69°44' E 030°04'  

Dump ship's entire track history